sensor_id;sensor_type;location;lat;lon;timestamp;pressure;altitude;pressure_sealevel;temperature;humidity
10706;BME280;5404;42.656;23.336;2023-02-28T00:00:21;95412.19;;;6.95;100.00
10706;BME280;5404;42.656;23.336;2023-02-28T00:02:48;95409.56;;;7.00;100.00
10706;BME280;5404;42.656;23.336;2023-02-28T00:05:17;95411.91;;;6.92;100.00
10706;BME280;5404;42.656;23.336;2023-02-28T00:07:43;95403.41;;;6.90;100.00
10706;BME280;5404;42.656;23.336;2023-02-28T00:10:12;95402.41;;;6.96;100.00
10706;BME280;5404;42.656;23.336;2023-02-28T00:12:38;95377.13;;;6.78;100.00
10706;BME280;5404;42.656;23.336;2023-02-28T00:15:08;95414.84;;;6.95;100.00
10706;BME280;5404;42.656;23.336;2023-02-28T00:17:34;95405.78;;;6.91;100.00
10706;BME280;5404;42.656;23.336;2023-02-28T00:20:00;95397.63;;;6.93;100.00
10706;BME280;5404;42.656;23.336;2023-02-28T00:22:39;95411.09;;;6.91;100.00
10706;BME280;5404;42.656;23.336;2023-02-28T00:25:06;95419.03;;;6.91;100.00
10706;BME280;5404;42.656;23.336;2023-02-28T00:27:33;95425.69;;;6.94;100.00
10706;BME280;5404;42.656;23.336;2023-02-28T00:29:58;95419.53;;;6.83;100.00
10706;BME280;5404;42.656;23.336;2023-02-28T00:32:27;95407.91;;;6.84;100.00
10706;BME280;5404;42.656;23.336;2023-02-28T00:34:52;95382.63;;;6.67;100.00
10706;BME280;5404;42.656;23.336;2023-02-28T00:37:18;95410.31;;;6.91;100.00
10706;BME280;5404;42.656;23.336;2023-02-28T00:39:45;95435.50;;;6.98;100.00
10706;BME280;5404;42.656;23.336;2023-02-28T00:42:10;95411.09;;;6.91;100.00
10706;BME280;5404;42.656;23.336;2023-02-28T00:44:35;95414.59;;;7.02;100.00
10706;BME280;5404;42.656;23.336;2023-02-28T00:47:01;95402.97;;;7.03;100.00
10706;BME280;5404;42.656;23.336;2023-02-28T00:49:27;95410.88;;;6.98;100.00
10706;BME280;5404;42.656;23.336;2023-02-28T00:51:56;95407.16;;;6.99;100.00
10706;BME280;5404;42.656;23.336;2023-02-28T00:54:22;95378.72;;;6.79;100.00
10706;BME280;5404;42.656;23.336;2023-02-28T00:56:49;95422.78;;;6.95;100.00
10706;BME280;5404;42.656;23.336;2023-02-28T00:59:16;95413.75;;;6.91;100.00
10706;BME280;5404;42.656;23.336;2023-02-28T01:01:43;95406.88;;;6.90;100.00
10706;BME280;5404;42.656;23.336;2023-02-28T01:04:09;95425.13;;;6.87;100.00
10706;BME280;5404;42.656;23.336;2023-02-28T01:06:35;95408.13;;;6.83;100.00
10706;BME280;5404;42.656;23.336;2023-02-28T01:09:03;95385.97;;;6.52;100.00
10706;BME280;5404;42.656;23.336;2023-02-28T01:11:29;95359.97;;;6.44;100.00
10706;BME280;5404;42.656;23.336;2023-02-28T01:13:56;95396.31;;;6.59;100.00
10706;BME280;5404;42.656;23.336;2023-02-28T01:16:22;95417.28;;;6.60;100.00
10706;BME280;5404;42.656;23.336;2023-02-28T01:18:48;95413.53;;;6.56;100.00
10706;BME280;5404;42.656;23.336;2023-02-28T01:21:16;95416.16;;;6.51;100.00
10706;BME280;5404;42.656;23.336;2023-02-28T01:23:42;95400.25;;;6.51;100.00
10706;BME280;5404;42.656;23.336;2023-02-28T01:26:11;95406.84;;;6.49;100.00
10706;BME280;5404;42.656;23.336;2023-02-28T01:28:37;95411.28;;;6.43;100.00
10706;BME280;5404;42.656;23.336;2023-02-28T01:31:03;95401.44;;;6.34;100.00
10706;BME280;5404;42.656;23.336;2023-02-28T01:33:29;95382.34;;;6.27;100.00
10706;BME280;5404;42.656;23.336;2023-02-28T01:36:03;95361.91;;;6.17;100.00
10706;BME280;5404;42.656;23.336;2023-02-28T01:38:30;95412.94;;;6.49;100.00
10706;BME280;5404;42.656;23.336;2023-02-28T01:40:56;95404.75;;;6.51;100.00
10706;BME280;5404;42.656;23.336;2023-02-28T01:43:30;95412.22;;;6.59;100.00
10706;BME280;5404;42.656;23.336;2023-02-28T01:45:58;95424.16;;;6.61;100.00
10706;BME280;5404;42.656;23.336;2023-02-28T01:48:36;95405.06;;;6.59;100.00
10706;BME280;5404;42.656;23.336;2023-02-28T01:51:07;95423.13;;;6.67;100.00
10706;BME280;5404;42.656;23.336;2023-02-28T01:53:37;95325.84;;;6.11;100.00
10706;BME280;5404;42.656;23.336;2023-02-28T01:56:06;95406.72;;;6.65;100.00
10706;BME280;5404;42.656;23.336;2023-02-28T01:58:34;95384.34;;;6.46;100.00
10706;BME280;5404;42.656;23.336;2023-02-28T02:01:00;95428.19;;;6.69;100.00
10706;BME280;5404;42.656;23.336;2023-02-28T02:03:29;95428.22;;;6.74;100.00
10706;BME280;5404;42.656;23.336;2023-02-28T02:05:55;95419.19;;;6.70;100.00
10706;BME280;5404;42.656;23.336;2023-02-28T02:08:25;95418.91;;;6.71;100.00
10706;BME280;5404;42.656;23.336;2023-02-28T02:11:00;95396.56;;;6.52;100.00
10706;BME280;5404;42.656;23.336;2023-02-28T02:14:01;95409.84;;;6.62;100.00
10706;BME280;5404;42.656;23.336;2023-02-28T02:33:26;95411.97;;;6.60;100.00
10706;BME280;5404;42.656;23.336;2023-02-28T02:35:54;95404.81;;;6.61;100.00
10706;BME280;5404;42.656;23.336;2023-02-28T02:38:52;95405.63;;;6.61;100.00
10706;BME280;5404;42.656;23.336;2023-02-28T02:41:43;95409.75;;;6.47;100.00
10706;BME280;5404;42.656;23.336;2023-02-28T02:44:31;95423.88;;;6.58;100.00
10706;BME280;5404;42.656;23.336;2023-02-28T02:47:24;95413.56;;;6.61;100.00
10706;BME280;5404;42.656;23.336;2023-02-28T02:49:52;95425.53;;;6.69;100.00
10706;BME280;5404;42.656;23.336;2023-02-28T02:52:23;95405.63;;;6.61;100.00
10706;BME280;5404;42.656;23.336;2023-02-28T02:54:52;95418.66;;;6.73;100.00
10706;BME280;5404;42.656;23.336;2023-02-28T02:57:35;95420.56;;;6.77;100.00
10706;BME280;5404;42.656;23.336;2023-02-28T03:00:05;95409.81;;;6.57;100.00
10706;BME280;5404;42.656;23.336;2023-02-28T03:02:35;95431.59;;;6.64;100.00
10706;BME280;5404;42.656;23.336;2023-02-28T03:05:12;95453.63;;;6.75;100.00
10706;BME280;5404;42.656;23.336;2023-02-28T03:07:41;95443.88;;;6.80;100.00
10706;BME280;5404;42.656;23.336;2023-02-28T03:10:36;95446.28;;;6.82;100.00
10706;BME280;5404;42.656;23.336;2023-02-28T03:18:42;95458.13;;;6.74;100.00
10706;BME280;5404;42.656;23.336;2023-02-28T03:24:10;95463.13;;;6.71;100.00
10706;BME280;5404;42.656;23.336;2023-02-28T03:26:42;95467.94;;;6.74;100.00
10706;BME280;5404;42.656;23.336;2023-02-28T03:31:59;95476.19;;;6.77;100.00
10706;BME280;5404;42.656;23.336;2023-02-28T03:34:33;95452.81;;;6.69;100.00
10706;BME280;5404;42.656;23.336;2023-02-28T03:37:05;95476.69;;;6.79;100.00
10706;BME280;5404;42.656;23.336;2023-02-28T03:39:43;95475.16;;;6.83;100.00
10706;BME280;5404;42.656;23.336;2023-02-28T03:42:14;95469.59;;;6.85;100.00
10706;BME280;5404;42.656;23.336;2023-02-28T03:44:45;95480.47;;;6.88;100.00
10706;BME280;5404;42.656;23.336;2023-02-28T03:47:27;95463.22;;;6.81;100.00
10706;BME280;5404;42.656;23.336;2023-02-28T03:52:30;95477.28;;;6.86;100.00
10706;BME280;5404;42.656;23.336;2023-02-28T03:55:02;95438.25;;;6.72;100.00
10706;BME280;5404;42.656;23.336;2023-02-28T04:02:41;95482.69;;;6.96;100.00
10706;BME280;5404;42.656;23.336;2023-02-28T04:05:07;95485.31;;;6.96;100.00
10706;BME280;5404;42.656;23.336;2023-02-28T04:07:33;95470.97;;;6.92;100.00
10706;BME280;5404;42.656;23.336;2023-02-28T04:09:58;95443.16;;;6.53;100.00
10706;BME280;5404;42.656;23.336;2023-02-28T04:12:24;95482.25;;;6.78;100.00
10706;BME280;5404;42.656;23.336;2023-02-28T04:14:50;95450.34;;;6.58;100.00
10706;BME280;5404;42.656;23.336;2023-02-28T04:17:17;95443.88;;;6.44;100.00
10706;BME280;5404;42.656;23.336;2023-02-28T04:19:43;95462.44;;;6.49;100.00
10706;BME280;5404;42.656;23.336;2023-02-28T04:22:09;95468.56;;;6.54;100.00
10706;BME280;5404;42.656;23.336;2023-02-28T04:24:35;95427.69;;;6.09;100.00
10706;BME280;5404;42.656;23.336;2023-02-28T04:27:01;95484.66;;;6.48;100.00
10706;BME280;5404;42.656;23.336;2023-02-28T04:29:29;95477.00;;;6.46;100.00
10706;BME280;5404;42.656;23.336;2023-02-28T04:31:56;95464.44;;;6.37;100.00
10706;BME280;5404;42.656;23.336;2023-02-28T04:34:23;95476.78;;;6.53;100.00
10706;BME280;5404;42.656;23.336;2023-02-28T04:36:48;95472.78;;;6.50;100.00
10706;BME280;5404;42.656;23.336;2023-02-28T04:39:16;95484.47;;;6.54;100.00
10706;BME280;5404;42.656;23.336;2023-02-28T04:41:44;95476.13;;;6.41;100.00
10706;BME280;5404;42.656;23.336;2023-02-28T04:44:09;95490.22;;;6.46;100.00
10706;BME280;5404;42.656;23.336;2023-02-28T04:46:35;95491.25;;;6.45;100.00
10706;BME280;5404;42.656;23.336;2023-02-28T04:49:00;95491.75;;;6.42;100.00
10706;BME280;5404;42.656;23.336;2023-02-28T04:51:29;95506.16;;;6.51;100.00
10706;BME280;5404;42.656;23.336;2023-02-28T04:53:55;95485.72;;;6.47;100.00
10706;BME280;5404;42.656;23.336;2023-02-28T04:56:20;95472.38;;;6.37;100.00
10706;BME280;5404;42.656;23.336;2023-02-28T04:58:48;95505.09;;;6.52;100.00
10706;BME280;5404;42.656;23.336;2023-02-28T05:01:26;95506.22;;;6.61;100.00
10706;BME280;5404;42.656;23.336;2023-02-28T05:03:54;95509.66;;;6.57;100.00
10706;BME280;5404;42.656;23.336;2023-02-28T05:06:22;95505.03;;;6.47;100.00
10706;BME280;5404;42.656;23.336;2023-02-28T05:08:49;95500.81;;;6.46;100.00
10706;BME280;5404;42.656;23.336;2023-02-28T05:11:23;95515.94;;;6.51;100.00
10706;BME280;5404;42.656;23.336;2023-02-28T05:13:53;95502.13;;;6.49;100.00
10706;BME280;5404;42.656;23.336;2023-02-28T05:16:19;95503.53;;;6.56;100.00
10706;BME280;5404;42.656;23.336;2023-02-28T05:18:44;95513.28;;;6.51;100.00
10706;BME280;5404;42.656;23.336;2023-02-28T05:21:28;95509.81;;;6.50;100.00
10706;BME280;5404;42.656;23.336;2023-02-28T05:24:00;95514.53;;;6.43;100.00
10706;BME280;5404;42.656;23.336;2023-02-28T05:26:26;95512.47;;;6.50;100.00
10706;BME280;5404;42.656;23.336;2023-02-28T05:28:53;95526.31;;;6.57;100.00
10706;BME280;5404;42.656;23.336;2023-02-28T05:31:20;95437.47;;;6.08;100.00
10706;BME280;5404;42.656;23.336;2023-02-28T05:33:46;95526.84;;;6.59;100.00
10706;BME280;5404;42.656;23.336;2023-02-28T05:36:12;95477.69;;;6.37;100.00
10706;BME280;5404;42.656;23.336;2023-02-28T05:38:39;95498.94;;;6.47;100.00
10706;BME280;5404;42.656;23.336;2023-02-28T05:41:08;95528.56;;;6.70;100.00
10706;BME280;5404;42.656;23.336;2023-02-28T05:43:35;95516.28;;;6.59;100.00
10706;BME280;5404;42.656;23.336;2023-02-28T05:46:08;95521.31;;;6.61;100.00
10706;BME280;5404;42.656;23.336;2023-02-28T05:48:37;95542.88;;;6.74;100.00
10706;BME280;5404;42.656;23.336;2023-02-28T05:51:04;95526.47;;;6.72;100.00
10706;BME280;5404;42.656;23.336;2023-02-28T05:53:30;95549.34;;;6.88;100.00
10706;BME280;5404;42.656;23.336;2023-02-28T05:55:57;95529.66;;;6.79;100.00
10706;BME280;5404;42.656;23.336;2023-02-28T05:58:23;95553.63;;;6.89;100.00
10706;BME280;5404;42.656;23.336;2023-02-28T06:00:51;95546.16;;;6.86;100.00
10706;BME280;5404;42.656;23.336;2023-02-28T06:03:20;95539.56;;;6.89;100.00
10706;BME280;5404;42.656;23.336;2023-02-28T06:05:45;95542.53;;;6.97;100.00
10706;BME280;5404;42.656;23.336;2023-02-28T06:08:10;95541.78;;;7.02;100.00
10706;BME280;5404;42.656;23.336;2023-02-28T06:10:36;95538.31;;;6.96;100.00
10706;BME280;5404;42.656;23.336;2023-02-28T06:13:03;95537.81;;;7.04;100.00
10706;BME280;5404;42.656;23.336;2023-02-28T06:15:29;95530.72;;;7.10;100.00
10706;BME280;5404;42.656;23.336;2023-02-28T06:17:54;95540.31;;;7.21;100.00
10706;BME280;5404;42.656;23.336;2023-02-28T06:20:24;95544.91;;;7.31;100.00
10706;BME280;5404;42.656;23.336;2023-02-28T06:22:51;95531.66;;;7.31;100.00
10706;BME280;5404;42.656;23.336;2023-02-28T06:25:17;95538.59;;;7.42;100.00
10706;BME280;5404;42.656;23.336;2023-02-28T06:27:43;95541.28;;;7.47;100.00
10706;BME280;5404;42.656;23.336;2023-02-28T06:30:10;95544.75;;;7.52;100.00
10706;BME280;5404;42.656;23.336;2023-02-28T06:32:36;95547.69;;;7.56;100.00
10706;BME280;5404;42.656;23.336;2023-02-28T06:35:02;95549.84;;;7.64;100.00
10706;BME280;5404;42.656;23.336;2023-02-28T06:37:27;95549.09;;;7.68;100.00
10706;BME280;5404;42.656;23.336;2023-02-28T06:39:54;95548.28;;;7.68;100.00
10706;BME280;5404;42.656;23.336;2023-02-28T06:42:24;95550.97;;;7.73;100.00
10706;BME280;5404;42.656;23.336;2023-02-28T06:44:57;95552.00;;;7.67;100.00
10706;BME280;5404;42.656;23.336;2023-02-28T06:47:23;95554.41;;;7.68;100.00
10706;BME280;5404;42.656;23.336;2023-02-28T06:49:49;95555.44;;;7.67;100.00
10706;BME280;5404;42.656;23.336;2023-02-28T06:52:16;95564.78;;;7.75;100.00
10706;BME280;5404;42.656;23.336;2023-02-28T06:54:42;95554.72;;;7.82;100.00
10706;BME280;5404;42.656;23.336;2023-02-28T06:57:09;95554.22;;;7.85;100.00
10706;BME280;5404;42.656;23.336;2023-02-28T06:59:35;95561.16;;;7.91;100.00
10706;BME280;5404;42.656;23.336;2023-02-28T07:02:01;95562.16;;;7.80;100.00
10706;BME280;5404;42.656;23.336;2023-02-28T07:04:27;95556.28;;;7.78;100.00
10706;BME280;5404;42.656;23.336;2023-02-28T07:06:54;95523.03;;;7.60;100.00
10706;BME280;5404;42.656;23.336;2023-02-28T07:09:22;95545.13;;;7.76;100.00
10706;BME280;5404;42.656;23.336;2023-02-28T07:11:49;95539.81;;;7.76;100.00
10706;BME280;5404;42.656;23.336;2023-02-28T07:14:14;95555.28;;;7.84;100.00
10706;BME280;5404;42.656;23.336;2023-02-28T07:16:41;95549.72;;;7.90;100.00
10706;BME280;5404;42.656;23.336;2023-02-28T07:19:06;95550.00;;;7.94;100.00
10706;BME280;5404;42.656;23.336;2023-02-28T07:21:33;95548.19;;;7.99;100.00
10706;BME280;5404;42.656;23.336;2023-02-28T07:23:59;95537.28;;;7.96;100.00
10706;BME280;5404;42.656;23.336;2023-02-28T07:26:25;95557.75;;;8.05;100.00
10706;BME280;5404;42.656;23.336;2023-02-28T07:28:50;95546.09;;;8.06;100.00
10706;BME280;5404;42.656;23.336;2023-02-28T07:31:16;95541.06;;;8.10;100.00
10706;BME280;5404;42.656;23.336;2023-02-28T07:33:42;95549.81;;;8.20;100.00
10706;BME280;5404;42.656;23.336;2023-02-28T07:36:11;95546.97;;;8.27;100.00
10706;BME280;5404;42.656;23.336;2023-02-28T07:38:43;95550.69;;;8.36;100.00
10706;BME280;5404;42.656;23.336;2023-02-28T07:41:09;95551.25;;;8.53;100.00
10706;BME280;5404;42.656;23.336;2023-02-28T07:43:35;95548.06;;;8.46;100.00
10706;BME280;5404;42.656;23.336;2023-02-28T07:46:03;95556.84;;;8.52;100.00
10706;BME280;5404;42.656;23.336;2023-02-28T07:48:29;95543.06;;;8.60;100.00
10706;BME280;5404;42.656;23.336;2023-02-28T07:50:58;95546.00;;;8.63;100.00
10706;BME280;5404;42.656;23.336;2023-02-28T07:53:23;95545.19;;;8.53;100.00
10706;BME280;5404;42.656;23.336;2023-02-28T07:55:49;95539.06;;;8.52;100.00
10706;BME280;5404;42.656;23.336;2023-02-28T07:58:14;95535.31;;;8.53;100.00
10706;BME280;5404;42.656;23.336;2023-02-28T08:00:40;95523.66;;;8.54;100.00
10706;BME280;5404;42.656;23.336;2023-02-28T08:03:05;95533.75;;;8.72;100.00
10706;BME280;5404;42.656;23.336;2023-02-28T08:05:31;95542.28;;;8.74;100.00
10706;BME280;5404;42.656;23.336;2023-02-28T08:07:57;95534.03;;;8.76;100.00
10706;BME280;5404;42.656;23.336;2023-02-28T08:10:23;95539.34;;;8.81;100.00
10706;BME280;5404;42.656;23.336;2023-02-28T08:12:49;95534.28;;;8.84;100.00
10706;BME280;5404;42.656;23.336;2023-02-28T08:15:15;95538.56;;;8.95;100.00
10706;BME280;5404;42.656;23.336;2023-02-28T08:17:40;95536.19;;;8.99;100.00
10706;BME280;5404;42.656;23.336;2023-02-28T08:20:06;95522.06;;;9.03;100.00
10706;BME280;5404;42.656;23.336;2023-02-28T08:22:32;95535.63;;;9.17;100.00
10706;BME280;5404;42.656;23.336;2023-02-28T08:24:58;95534.31;;;9.19;100.00
10706;BME280;5404;42.656;23.336;2023-02-28T08:27:24;95533.25;;;9.10;100.00
10706;BME280;5404;42.656;23.336;2023-02-28T08:29:50;95539.63;;;9.04;100.00
10706;BME280;5404;42.656;23.336;2023-02-28T08:32:15;95534.06;;;8.96;100.00
10706;BME280;5404;42.656;23.336;2023-02-28T08:34:41;95538.81;;;9.04;100.00
10706;BME280;5404;42.656;23.336;2023-02-28T08:37:07;95543.88;;;9.05;100.00
10706;BME280;5404;42.656;23.336;2023-02-28T08:39:35;95540.94;;;9.12;100.00
10706;BME280;5404;42.656;23.336;2023-02-28T08:42:02;95540.94;;;9.17;100.00
10706;BME280;5404;42.656;23.336;2023-02-28T08:44:28;95542.28;;;9.14;100.00
10706;BME280;5404;42.656;23.336;2023-02-28T08:46:54;95541.47;;;9.09;100.00
10706;BME280;5404;42.656;23.336;2023-02-28T08:49:19;95471.63;;;8.68;100.00
10706;BME280;5404;42.656;23.336;2023-02-28T08:51:45;95538.81;;;9.24;100.00
10706;BME280;5404;42.656;23.336;2023-02-28T08:54:10;95545.44;;;9.36;100.00
10706;BME280;5404;42.656;23.336;2023-02-28T08:56:38;95531.91;;;9.28;100.00
10706;BME280;5404;42.656;23.336;2023-02-28T08:59:03;95485.44;;;8.80;100.00
10706;BME280;5404;42.656;23.336;2023-02-28T09:01:29;95560.09;;;9.04;100.00
10706;BME280;5404;42.656;23.336;2023-02-28T09:03:55;95548.66;;;9.03;100.00
10706;BME280;5404;42.656;23.336;2023-02-28T09:06:24;95546.81;;;8.94;100.00
10706;BME280;5404;42.656;23.336;2023-02-28T09:08:50;95528.72;;;8.76;100.00
10706;BME280;5404;42.656;23.336;2023-02-28T09:11:17;95539.63;;;8.94;100.00
10706;BME280;5404;42.656;23.336;2023-02-28T09:13:44;95540.94;;;9.07;100.00
10706;BME280;5404;42.656;23.336;2023-02-28T09:16:12;95551.84;;;9.10;100.00
10706;BME280;5404;42.656;23.336;2023-02-28T09:18:39;95516.25;;;8.71;100.00
10706;BME280;5404;42.656;23.336;2023-02-28T09:21:10;95552.63;;;8.81;100.00
10706;BME280;5404;42.656;23.336;2023-02-28T09:23:37;95543.88;;;8.75;100.00
10706;BME280;5404;42.656;23.336;2023-02-28T09:26:07;95546.81;;;8.84;100.00
10706;BME280;5404;42.656;23.336;2023-02-28T09:28:34;95545.19;;;9.03;100.00
10706;BME280;5404;42.656;23.336;2023-02-28T09:30:59;95547.84;;;9.33;100.00
10706;BME280;5404;42.656;23.336;2023-02-28T09:33:26;95546.75;;;9.54;100.00
10706;BME280;5404;42.656;23.336;2023-02-28T09:35:58;95548.56;;;9.69;100.00
10706;BME280;5404;42.656;23.336;2023-02-28T09:38:26;95540.31;;;9.80;100.00
10706;BME280;5404;42.656;23.336;2023-02-28T09:40:56;95537.88;;;9.89;100.00
10706;BME280;5404;42.656;23.336;2023-02-28T09:43:25;95539.13;;;10.06;100.00
10706;BME280;5404;42.656;23.336;2023-02-28T09:46:28;95535.56;;;10.36;100.00
10706;BME280;5404;42.656;23.336;2023-02-28T09:48:55;95530.59;;;10.63;100.00
10706;BME280;5404;42.656;23.336;2023-02-28T09:53:57;95512.69;;;11.07;100.00
10706;BME280;5404;42.656;23.336;2023-02-28T09:56:40;95486.19;;;11.16;100.00
10706;BME280;5404;42.656;23.336;2023-02-28T10:04:52;95478.78;;;11.65;100.00
10706;BME280;5404;42.656;23.336;2023-02-28T10:10:32;95475.94;;;11.80;100.00
10706;BME280;5404;42.656;23.336;2023-02-28T10:13:04;95454.13;;;11.73;100.00
10706;BME280;5404;42.656;23.336;2023-02-28T10:15:32;95428.06;;;11.65;100.00
10706;BME280;5404;42.656;23.336;2023-02-28T10:18:04;95459.97;;;11.99;100.00
10706;BME280;5404;42.656;23.336;2023-02-28T10:20:34;95442.84;;;12.00;100.00
10706;BME280;5404;42.656;23.336;2023-02-28T10:23:05;95457.72;;;12.06;100.00
10706;BME280;5404;42.656;23.336;2023-02-28T10:25:36;95451.53;;;12.10;100.00
10706;BME280;5404;42.656;23.336;2023-02-28T10:30:34;95383.06;;;11.77;100.00
10706;BME280;5404;42.656;23.336;2023-02-28T10:33:00;95436.72;;;12.18;100.00
10706;BME280;5404;42.656;23.336;2023-02-28T10:35:29;95417.94;;;12.23;100.00
10706;BME280;5404;42.656;23.336;2023-02-28T10:37:59;95421.06;;;12.48;100.00
10706;BME280;5404;42.656;23.336;2023-02-28T10:40:34;95406.47;;;12.73;100.00
10706;BME280;5404;42.656;23.336;2023-02-28T10:43:12;95414.13;;;13.12;100.00
10706;BME280;5404;42.656;23.336;2023-02-28T10:46:18;95396.53;;;13.51;100.00
10706;BME280;5404;42.656;23.336;2023-02-28T10:49:05;95384.41;;;13.67;100.00
10706;BME280;5404;42.656;23.336;2023-02-28T10:51:38;95380.25;;;13.61;100.00
10706;BME280;5404;42.656;23.336;2023-02-28T10:54:04;95368.97;;;13.37;100.00
10706;BME280;5404;42.656;23.336;2023-02-28T10:56:31;95378.34;;;13.35;100.00
10706;BME280;5404;42.656;23.336;2023-02-28T10:59:29;95364.31;;;13.29;100.00
10706;BME280;5404;42.656;23.336;2023-02-28T11:01:55;95367.44;;;13.04;100.00
10706;BME280;5404;42.656;23.336;2023-02-28T11:07:03;95361.22;;;13.22;100.00
10706;BME280;5404;42.656;23.336;2023-02-28T11:09:37;95353.09;;;13.41;100.00
10706;BME280;5404;42.656;23.336;2023-02-28T11:12:06;95352.47;;;13.71;100.00
10706;BME280;5404;42.656;23.336;2023-02-28T11:14:40;95342.47;;;13.98;100.00
10706;BME280;5404;42.656;23.336;2023-02-28T11:17:21;95342.84;;;14.41;100.00
10706;BME280;5404;42.656;23.336;2023-02-28T11:19:51;95330.78;;;14.52;100.00
10706;BME280;5404;42.656;23.336;2023-02-28T11:22:24;95328.06;;;14.44;100.00
10706;BME280;5404;42.656;23.336;2023-02-28T11:24:59;95280.72;;;13.81;100.00
10706;BME280;5404;42.656;23.336;2023-02-28T11:30:00;95333.25;;;13.69;100.00
10706;BME280;5404;42.656;23.336;2023-02-28T11:32:28;95348.63;;;13.63;100.00
10706;BME280;5404;42.656;23.336;2023-02-28T11:37:35;95334.16;;;13.51;100.00
10706;BME280;5404;42.656;23.336;2023-02-28T11:40:01;95338.81;;;13.32;100.00
10706;BME280;5404;42.656;23.336;2023-02-28T11:42:47;95347.16;;;13.30;100.00
10706;BME280;5404;42.656;23.336;2023-02-28T11:45:26;95341.28;;;13.28;100.00
10706;BME280;5404;42.656;23.336;2023-02-28T11:48:07;95339.50;;;13.51;100.00
10706;BME280;5404;42.656;23.336;2023-02-28T11:51:04;95325.28;;;13.64;100.00
10706;BME280;5404;42.656;23.336;2023-02-28T11:53:56;95317.16;;;13.82;100.00
10706;BME280;5404;42.656;23.336;2023-02-28T11:59:34;95331.63;;;13.68;100.00
10706;BME280;5404;42.656;23.336;2023-02-28T12:10:52;95334.38;;;13.14;100.00
10706;BME280;5404;42.656;23.336;2023-02-28T12:13:57;95346.16;;;13.13;100.00
10706;BME280;5404;42.656;23.336;2023-02-28T12:27:19;95323.47;;;13.24;100.00
10706;BME280;5404;42.656;23.336;2023-02-28T12:29:54;95325.94;;;13.07;100.00
10706;BME280;5404;42.656;23.336;2023-02-28T12:32:34;95336.22;;;13.00;100.00
10706;BME280;5404;42.656;23.336;2023-02-28T12:35:12;95341.75;;;12.89;100.00
10706;BME280;5404;42.656;23.336;2023-02-28T12:37:43;95334.97;;;12.78;100.00
10706;BME280;5404;42.656;23.336;2023-02-28T12:40:19;95331.66;;;12.54;100.00
10706;BME280;5404;42.656;23.336;2023-02-28T12:42:49;95312.38;;;12.25;100.00
10706;BME280;5404;42.656;23.336;2023-02-28T12:45:39;95339.66;;;12.41;100.00
10706;BME280;5404;42.656;23.336;2023-02-28T12:48:08;95336.47;;;12.39;100.00
10706;BME280;5404;42.656;23.336;2023-02-28T12:50:36;95333.50;;;12.40;100.00
10706;BME280;5404;42.656;23.336;2023-02-28T12:53:07;95328.16;;;12.40;100.00
10706;BME280;5404;42.656;23.336;2023-02-28T12:55:52;95336.00;;;12.50;100.00
10706;BME280;5404;42.656;23.336;2023-02-28T12:58:32;95335.25;;;12.63;100.00
10706;BME280;5404;42.656;23.336;2023-02-28T13:09:35;95317.78;;;12.84;100.00
10706;BME280;5404;42.656;23.336;2023-02-28T13:12:02;95323.00;;;12.76;100.00
10706;BME280;5404;42.656;23.336;2023-02-28T13:14:38;95327.03;;;12.60;100.00
10706;BME280;5404;42.656;23.336;2023-02-28T13:24:56;95321.94;;;12.45;100.00
10706;BME280;5404;42.656;23.336;2023-02-28T13:27:39;95319.50;;;12.48;100.00
10706;BME280;5404;42.656;23.336;2023-02-28T13:33:22;95321.97;;;12.58;100.00
10706;BME280;5404;42.656;23.336;2023-02-28T13:35:48;95316.34;;;12.60;100.00
10706;BME280;5404;42.656;23.336;2023-02-28T13:38:33;95316.44;;;12.55;100.00
10706;BME280;5404;42.656;23.336;2023-02-28T13:44:16;95298.56;;;12.50;100.00
10706;BME280;5404;42.656;23.336;2023-02-28T13:57:47;95303.47;;;12.30;100.00
10706;BME280;5404;42.656;23.336;2023-02-28T14:05:33;95296.34;;;12.25;100.00
10706;BME280;5404;42.656;23.336;2023-02-28T14:08:08;95278.03;;;12.19;100.00
10706;BME280;5404;42.656;23.336;2023-02-28T14:10:45;95303.66;;;12.20;100.00
10706;BME280;5404;42.656;23.336;2023-02-28T14:16:17;95306.69;;;11.57;100.00
10706;BME280;5404;42.656;23.336;2023-02-28T14:18:57;95315.53;;;11.77;100.00
10706;BME280;5404;42.656;23.336;2023-02-28T14:21:31;95320.31;;;11.80;100.00
10706;BME280;5404;42.656;23.336;2023-02-28T14:30:15;95323.50;;;11.58;100.00
10706;BME280;5404;42.656;23.336;2023-02-28T14:38:27;95332.19;;;11.68;100.00
10706;BME280;5404;42.656;23.336;2023-02-28T14:40:56;95322.88;;;11.66;100.00
10706;BME280;5404;42.656;23.336;2023-02-28T14:43:25;95326.97;;;11.58;100.00
10706;BME280;5404;42.656;23.336;2023-02-28T14:45:57;95326.06;;;11.44;100.00
10706;BME280;5404;42.656;23.336;2023-02-28T14:48:24;95304.78;;;11.21;100.00
10706;BME280;5404;42.656;23.336;2023-02-28T14:50:53;95330.16;;;11.37;100.00
10706;BME280;5404;42.656;23.336;2023-02-28T14:53:21;95333.13;;;11.35;100.00
10706;BME280;5404;42.656;23.336;2023-02-28T14:55:48;95334.78;;;11.31;100.00
10706;BME280;5404;42.656;23.336;2023-02-28T15:00:53;95337.25;;;11.28;100.00
10706;BME280;5404;42.656;23.336;2023-02-28T15:05:55;95330.53;;;11.07;100.00
10706;BME280;5404;42.656;23.336;2023-02-28T15:08:21;95330.19;;;10.90;100.00
10706;BME280;5404;42.656;23.336;2023-02-28T15:11:02;95319.75;;;10.70;100.00
10706;BME280;5404;42.656;23.336;2023-02-28T15:16:08;95337.63;;;10.69;100.00
10706;BME280;5404;42.656;23.336;2023-02-28T15:18:55;95336.28;;;10.67;100.00
10706;BME280;5404;42.656;23.336;2023-02-28T15:23:57;95329.81;;;10.49;100.00
10706;BME280;5404;42.656;23.336;2023-02-28T15:26:27;95344.72;;;10.50;100.00
10706;BME280;5404;42.656;23.336;2023-02-28T15:29:00;95346.56;;;10.49;100.00
10706;BME280;5404;42.656;23.336;2023-02-28T15:31:30;95358.66;;;10.42;100.00
10706;BME280;5404;42.656;23.336;2023-02-28T15:33:58;95356.03;;;10.37;100.00
10706;BME280;5404;42.656;23.336;2023-02-28T15:36:33;95372.53;;;10.34;100.00